Main page
METAR-TAF:

METAR-TAF

Airports :

Boise Airport

Boise, Idaho, United States

latitude: 43-34-00N, longitude: 116-14-26W, elevation: 2857 ft

Current weather observation

The report was made 23 minutes ago, at 21:53 UTC
Wind 3 mph from variable directions
Temperature 93°F
Humidity 11%
Pressure 30.10 in. Hg
Visibility: 10 miles
Clear sky

METAR: KBOI 072153Z VRB03KT 10SM CLR 34/M01 A3010 RMK AO2 SLP160 T03441006

Time: 16:16 (22:16 UTC)

Forecast

The report was made 4 hours and 56 minutes ago, at 17:20 UTC
Forecast valid from 07 at 18 UTC to 08 at 18 UTC
Wind 9 mph from the Southeast
Visibility: 6 miles
Clear sky
From 07 at 2200 UTC
Wind 6 mph from the North/Northwest
Visibility: 6 miles
Clear sky
From 08 at 0400 UTC
Wind 13 mph from the Southeast
Visibility: 6 miles
Scattered clouds at a height of 15000 ft

TAF: KBOI 071720Z 0718/0818 13008KT P6SM SKC FM072200 33005KT P6SM SKC FM080400 13011KT P6SM SCT150

Weather observations and forecasts of more than 4000 airports (METAR and TAF reports).

The available stations are represented by yellow and red dots on the map.

Hover mouse over dot to see the name of the station.

Then click to see weather observations and forecasts.

To change the map : click on the green buttons with a black cross to zoom in, on the green button with a dash to zoom out, or on the green arrows for adjacent maps.


METAR-TAF: